sensor_id;sensor_type;location;lat;lon;timestamp;P1;durP1;ratioP1;P2;durP2;ratioP2
27305;SDS011;14792;50.886;6.468;2023-08-24T00:03:01;8.53;;;3.90;;
27305;SDS011;14792;50.886;6.468;2023-08-24T00:06:02;10.80;;;4.22;;
27305;SDS011;14792;50.886;6.468;2023-08-24T00:09:04;12.80;;;4.30;;
27305;SDS011;14792;50.886;6.468;2023-08-24T00:12:05;12.53;;;4.45;;
27305;SDS011;14792;50.886;6.468;2023-08-24T00:15:10;6.72;;;3.98;;
27305;SDS011;14792;50.886;6.468;2023-08-24T00:18:12;15.45;;;3.85;;
27305;SDS011;14792;50.886;6.468;2023-08-24T00:21:14;8.25;;;4.15;;
27305;SDS011;14792;50.886;6.468;2023-08-24T00:24:15;12.90;;;4.45;;
27305;SDS011;14792;50.886;6.468;2023-08-24T00:27:16;10.40;;;3.55;;
27305;SDS011;14792;50.886;6.468;2023-08-24T00:30:18;9.15;;;4.25;;
27305;SDS011;14792;50.886;6.468;2023-08-24T00:33:20;8.00;;;4.17;;
27305;SDS011;14792;50.886;6.468;2023-08-24T00:36:21;7.58;;;4.00;;
27305;SDS011;14792;50.886;6.468;2023-08-24T00:39:23;10.03;;;3.95;;
27305;SDS011;14792;50.886;6.468;2023-08-24T00:42:24;9.03;;;3.85;;
27305;SDS011;14792;50.886;6.468;2023-08-24T00:45:29;10.20;;;4.70;;
27305;SDS011;14792;50.886;6.468;2023-08-24T00:48:30;8.20;;;4.47;;
27305;SDS011;14792;50.886;6.468;2023-08-24T00:51:32;11.15;;;4.53;;
27305;SDS011;14792;50.886;6.468;2023-08-24T00:54:34;7.42;;;3.92;;
27305;SDS011;14792;50.886;6.468;2023-08-24T00:57:36;8.78;;;4.90;;
27305;SDS011;14792;50.886;6.468;2023-08-24T01:00:37;11.08;;;4.83;;
27305;SDS011;14792;50.886;6.468;2023-08-24T01:03:38;9.83;;;5.42;;
27305;SDS011;14792;50.886;6.468;2023-08-24T01:06:40;12.37;;;4.97;;
27305;SDS011;14792;50.886;6.468;2023-08-24T01:09:41;11.85;;;5.03;;
27305;SDS011;14792;50.886;6.468;2023-08-24T01:16:11;9.70;;;4.95;;
27305;SDS011;14792;50.886;6.468;2023-08-24T01:19:13;10.98;;;4.90;;
27305;SDS011;14792;50.886;6.468;2023-08-24T01:22:22;8.75;;;4.53;;
27305;SDS011;14792;50.886;6.468;2023-08-24T01:28:35;10.55;;;5.45;;
27305;SDS011;14792;50.886;6.468;2023-08-24T01:31:37;15.30;;;6.33;;
27305;SDS011;14792;50.886;6.468;2023-08-24T01:34:38;11.50;;;5.80;;
27305;SDS011;14792;50.886;6.468;2023-08-24T01:37:40;11.30;;;5.75;;
27305;SDS011;14792;50.886;6.468;2023-08-24T01:40:46;13.98;;;5.62;;
27305;SDS011;14792;50.886;6.468;2023-08-24T01:44:04;12.13;;;5.35;;
27305;SDS011;14792;50.886;6.468;2023-08-24T01:47:06;9.05;;;5.35;;
27305;SDS011;14792;50.886;6.468;2023-08-24T01:50:07;11.48;;;5.85;;
27305;SDS011;14792;50.886;6.468;2023-08-24T01:53:09;10.80;;;5.20;;
27305;SDS011;14792;50.886;6.468;2023-08-24T01:56:11;13.58;;;5.53;;
27305;SDS011;14792;50.886;6.468;2023-08-24T01:59:12;11.40;;;4.97;;
27305;SDS011;14792;50.886;6.468;2023-08-24T02:02:14;10.82;;;4.47;;
27305;SDS011;14792;50.886;6.468;2023-08-24T02:05:15;22.07;;;5.12;;
27305;SDS011;14792;50.886;6.468;2023-08-24T02:08:17;14.28;;;4.08;;
27305;SDS011;14792;50.886;6.468;2023-08-24T02:11:18;27.20;;;4.72;;
27305;SDS011;14792;50.886;6.468;2023-08-24T02:14:20;29.35;;;5.37;;
27305;SDS011;14792;50.886;6.468;2023-08-24T02:17:22;20.52;;;4.72;;
27305;SDS011;14792;50.886;6.468;2023-08-24T02:20:23;22.98;;;4.65;;
27305;SDS011;14792;50.886;6.468;2023-08-24T02:23:25;28.32;;;5.12;;
27305;SDS011;14792;50.886;6.468;2023-08-24T02:26:26;26.37;;;5.47;;
27305;SDS011;14792;50.886;6.468;2023-08-24T02:29:28;32.78;;;4.90;;
27305;SDS011;14792;50.886;6.468;2023-08-24T02:32:30;31.45;;;4.95;;
27305;SDS011;14792;50.886;6.468;2023-08-24T02:35:31;30.15;;;4.33;;
27305;SDS011;14792;50.886;6.468;2023-08-24T02:38:33;22.90;;;4.60;;
27305;SDS011;14792;50.886;6.468;2023-08-24T02:41:34;38.20;;;5.10;;
27305;SDS011;14792;50.886;6.468;2023-08-24T02:44:36;33.08;;;5.80;;
27305;SDS011;14792;50.886;6.468;2023-08-24T02:47:38;23.38;;;5.05;;
27305;SDS011;14792;50.886;6.468;2023-08-24T02:50:39;28.30;;;5.20;;
27305;SDS011;14792;50.886;6.468;2023-08-24T02:53:41;29.20;;;4.95;;
27305;SDS011;14792;50.886;6.468;2023-08-24T02:56:42;27.52;;;5.03;;
27305;SDS011;14792;50.886;6.468;2023-08-24T02:59:44;29.23;;;5.37;;
27305;SDS011;14792;50.886;6.468;2023-08-24T03:02:45;26.27;;;4.72;;
27305;SDS011;14792;50.886;6.468;2023-08-24T03:05:57;25.32;;;3.95;;
27305;SDS011;14792;50.886;6.468;2023-08-24T03:08:59;32.90;;;4.33;;
27305;SDS011;14792;50.886;6.468;2023-08-24T03:11:59;20.70;;;4.30;;
27305;SDS011;14792;50.886;6.468;2023-08-24T03:15:01;24.85;;;4.05;;
27305;SDS011;14792;50.886;6.468;2023-08-24T03:18:02;18.35;;;4.17;;
27305;SDS011;14792;50.886;6.468;2023-08-24T03:21:04;21.70;;;4.53;;
27305;SDS011;14792;50.886;6.468;2023-08-24T03:24:06;23.52;;;4.75;;
27305;SDS011;14792;50.886;6.468;2023-08-24T03:27:07;22.85;;;4.35;;
27305;SDS011;14792;50.886;6.468;2023-08-24T03:30:09;14.98;;;3.83;;
27305;SDS011;14792;50.886;6.468;2023-08-24T03:33:10;23.75;;;4.50;;
27305;SDS011;14792;50.886;6.468;2023-08-24T03:36:12;21.00;;;4.33;;
27305;SDS011;14792;50.886;6.468;2023-08-24T03:39:14;25.27;;;4.78;;
27305;SDS011;14792;50.886;6.468;2023-08-24T03:42:18;17.30;;;3.83;;
27305;SDS011;14792;50.886;6.468;2023-08-24T03:45:20;22.90;;;4.17;;
27305;SDS011;14792;50.886;6.468;2023-08-24T03:48:21;22.00;;;4.37;;
27305;SDS011;14792;50.886;6.468;2023-08-24T03:51:23;24.18;;;4.40;;
27305;SDS011;14792;50.886;6.468;2023-08-24T03:54:24;29.60;;;5.15;;
27305;SDS011;14792;50.886;6.468;2023-08-24T03:57:26;24.55;;;4.65;;
27305;SDS011;14792;50.886;6.468;2023-08-24T04:00:28;18.85;;;4.22;;
27305;SDS011;14792;50.886;6.468;2023-08-24T04:03:29;30.72;;;5.10;;
27305;SDS011;14792;50.886;6.468;2023-08-24T04:06:31;22.52;;;4.00;;
27305;SDS011;14792;50.886;6.468;2023-08-24T04:09:32;22.22;;;4.28;;
27305;SDS011;14792;50.886;6.468;2023-08-24T04:12:34;18.50;;;4.75;;
27305;SDS011;14792;50.886;6.468;2023-08-24T04:15:36;21.70;;;4.50;;
27305;SDS011;14792;50.886;6.468;2023-08-24T04:18:37;25.00;;;5.17;;
27305;SDS011;14792;50.886;6.468;2023-08-24T04:21:39;21.77;;;4.75;;
27305;SDS011;14792;50.886;6.468;2023-08-24T04:24:40;24.52;;;5.42;;
27305;SDS011;14792;50.886;6.468;2023-08-24T04:27:42;41.50;;;6.15;;
27305;SDS011;14792;50.886;6.468;2023-08-24T04:30:50;41.33;;;6.65;;
27305;SDS011;14792;50.886;6.468;2023-08-24T04:33:51;39.55;;;7.50;;
27305;SDS011;14792;50.886;6.468;2023-08-24T04:36:53;49.40;;;8.23;;
27305;SDS011;14792;50.886;6.468;2023-08-24T04:39:54;34.53;;;6.55;;
27305;SDS011;14792;50.886;6.468;2023-08-24T04:42:56;31.73;;;7.00;;
27305;SDS011;14792;50.886;6.468;2023-08-24T04:45:57;23.60;;;6.45;;
27305;SDS011;14792;50.886;6.468;2023-08-24T04:48:59;19.77;;;5.30;;
27305;SDS011;14792;50.886;6.468;2023-08-24T04:52:01;18.45;;;5.75;;
27305;SDS011;14792;50.886;6.468;2023-08-24T04:55:02;21.20;;;6.50;;
27305;SDS011;14792;50.886;6.468;2023-08-24T04:58:04;18.75;;;6.40;;
27305;SDS011;14792;50.886;6.468;2023-08-24T05:01:05;23.92;;;6.37;;
27305;SDS011;14792;50.886;6.468;2023-08-24T05:04:07;20.20;;;6.28;;
27305;SDS011;14792;50.886;6.468;2023-08-24T05:07:08;17.45;;;5.55;;
27305;SDS011;14792;50.886;6.468;2023-08-24T05:10:10;12.78;;;5.85;;
27305;SDS011;14792;50.886;6.468;2023-08-24T05:13:12;14.00;;;5.65;;
27305;SDS011;14792;50.886;6.468;2023-08-24T05:16:13;19.25;;;5.65;;
27305;SDS011;14792;50.886;6.468;2023-08-24T05:19:15;17.80;;;5.05;;
27305;SDS011;14792;50.886;6.468;2023-08-24T05:22:16;19.60;;;5.78;;
27305;SDS011;14792;50.886;6.468;2023-08-24T05:25:18;19.35;;;5.58;;
27305;SDS011;14792;50.886;6.468;2023-08-24T05:28:20;13.28;;;4.90;;
27305;SDS011;14792;50.886;6.468;2023-08-24T05:31:21;13.05;;;5.15;;
27305;SDS011;14792;50.886;6.468;2023-08-24T05:34:23;14.25;;;5.95;;
27305;SDS011;14792;50.886;6.468;2023-08-24T05:37:24;17.12;;;5.47;;
27305;SDS011;14792;50.886;6.468;2023-08-24T05:40:26;15.98;;;5.85;;
27305;SDS011;14792;50.886;6.468;2023-08-24T05:43:28;17.10;;;5.58;;
27305;SDS011;14792;50.886;6.468;2023-08-24T05:46:29;19.45;;;6.67;;
27305;SDS011;14792;50.886;6.468;2023-08-24T05:49:31;12.35;;;5.60;;
27305;SDS011;14792;50.886;6.468;2023-08-24T05:52:32;12.60;;;5.28;;
27305;SDS011;14792;50.886;6.468;2023-08-24T05:55:34;14.28;;;6.22;;
27305;SDS011;14792;50.886;6.468;2023-08-24T05:58:36;14.87;;;6.35;;
27305;SDS011;14792;50.886;6.468;2023-08-24T06:01:37;16.62;;;5.92;;
27305;SDS011;14792;50.886;6.468;2023-08-24T06:04:39;13.15;;;6.40;;
27305;SDS011;14792;50.886;6.468;2023-08-24T06:07:40;12.10;;;6.40;;
27305;SDS011;14792;50.886;6.468;2023-08-24T06:10:42;13.78;;;5.95;;
27305;SDS011;14792;50.886;6.468;2023-08-24T06:13:43;17.02;;;5.75;;
27305;SDS011;14792;50.886;6.468;2023-08-24T06:16:45;18.00;;;5.90;;
27305;SDS011;14792;50.886;6.468;2023-08-24T06:19:47;16.60;;;6.70;;
27305;SDS011;14792;50.886;6.468;2023-08-24T06:22:48;22.95;;;6.25;;
27305;SDS011;14792;50.886;6.468;2023-08-24T06:25:50;23.32;;;6.90;;
27305;SDS011;14792;50.886;6.468;2023-08-24T06:28:51;16.65;;;5.85;;
27305;SDS011;14792;50.886;6.468;2023-08-24T06:31:53;18.10;;;6.17;;
27305;SDS011;14792;50.886;6.468;2023-08-24T06:34:55;20.75;;;6.65;;
27305;SDS011;14792;50.886;6.468;2023-08-24T06:37:56;16.75;;;5.97;;
27305;SDS011;14792;50.886;6.468;2023-08-24T06:40:58;12.30;;;4.95;;
27305;SDS011;14792;50.886;6.468;2023-08-24T06:43:59;15.90;;;5.78;;
27305;SDS011;14792;50.886;6.468;2023-08-24T06:47:01;18.73;;;6.00;;
27305;SDS011;14792;50.886;6.468;2023-08-24T06:50:03;16.00;;;5.90;;
27305;SDS011;14792;50.886;6.468;2023-08-24T06:53:04;20.82;;;5.80;;
27305;SDS011;14792;50.886;6.468;2023-08-24T06:56:06;21.95;;;5.50;;
27305;SDS011;14792;50.886;6.468;2023-08-24T06:59:07;13.05;;;5.00;;
27305;SDS011;14792;50.886;6.468;2023-08-24T07:02:09;18.80;;;4.90;;
27305;SDS011;14792;50.886;6.468;2023-08-24T07:05:10;13.20;;;5.12;;
27305;SDS011;14792;50.886;6.468;2023-08-24T07:08:12;13.93;;;5.40;;
27305;SDS011;14792;50.886;6.468;2023-08-24T07:11:14;16.90;;;4.53;;
27305;SDS011;14792;50.886;6.468;2023-08-24T07:14:15;15.03;;;5.03;;
27305;SDS011;14792;50.886;6.468;2023-08-24T07:17:17;14.98;;;5.45;;
27305;SDS011;14792;50.886;6.468;2023-08-24T07:20:18;22.17;;;4.65;;
27305;SDS011;14792;50.886;6.468;2023-08-24T07:23:20;18.30;;;5.22;;
27305;SDS011;14792;50.886;6.468;2023-08-24T07:26:22;14.58;;;4.33;;
27305;SDS011;14792;50.886;6.468;2023-08-24T07:29:23;23.80;;;5.08;;
27305;SDS011;14792;50.886;6.468;2023-08-24T07:32:26;23.07;;;5.03;;
27305;SDS011;14792;50.886;6.468;2023-08-24T07:35:29;20.55;;;4.95;;
27305;SDS011;14792;50.886;6.468;2023-08-24T07:38:31;18.40;;;4.85;;
27305;SDS011;14792;50.886;6.468;2023-08-24T07:41:32;14.68;;;4.72;;
27305;SDS011;14792;50.886;6.468;2023-08-24T07:44:34;14.58;;;5.10;;
27305;SDS011;14792;50.886;6.468;2023-08-24T07:47:35;15.35;;;4.75;;
27305;SDS011;14792;50.886;6.468;2023-08-24T07:50:37;21.93;;;4.72;;
27305;SDS011;14792;50.886;6.468;2023-08-24T07:53:39;15.48;;;4.40;;
27305;SDS011;14792;50.886;6.468;2023-08-24T07:56:40;9.55;;;3.17;;
27305;SDS011;14792;50.886;6.468;2023-08-24T07:59:42;14.50;;;3.55;;
27305;SDS011;14792;50.886;6.468;2023-08-24T08:02:43;15.93;;;3.85;;
27305;SDS011;14792;50.886;6.468;2023-08-24T08:05:45;15.20;;;3.80;;
27305;SDS011;14792;50.886;6.468;2023-08-24T08:08:46;14.58;;;3.75;;
27305;SDS011;14792;50.886;6.468;2023-08-24T08:11:48;21.40;;;4.00;;
27305;SDS011;14792;50.886;6.468;2023-08-24T08:14:50;22.42;;;4.42;;
27305;SDS011;14792;50.886;6.468;2023-08-24T08:17:51;21.48;;;4.20;;
27305;SDS011;14792;50.886;6.468;2023-08-24T08:20:53;16.02;;;4.03;;
27305;SDS011;14792;50.886;6.468;2023-08-24T08:23:54;13.40;;;4.28;;
27305;SDS011;14792;50.886;6.468;2023-08-24T08:26:56;20.20;;;4.80;;
27305;SDS011;14792;50.886;6.468;2023-08-24T08:29:58;17.55;;;4.45;;
27305;SDS011;14792;50.886;6.468;2023-08-24T08:32:59;15.45;;;4.17;;
27305;SDS011;14792;50.886;6.468;2023-08-24T08:36:01;14.00;;;3.60;;
27305;SDS011;14792;50.886;6.468;2023-08-24T08:39:02;18.92;;;4.08;;
27305;SDS011;14792;50.886;6.468;2023-08-24T08:42:04;10.35;;;3.85;;
27305;SDS011;14792;50.886;6.468;2023-08-24T08:45:08;12.40;;;3.87;;
27305;SDS011;14792;50.886;6.468;2023-08-24T08:48:07;21.48;;;4.05;;
27305;SDS011;14792;50.886;6.468;2023-08-24T08:51:09;19.87;;;4.10;;
27305;SDS011;14792;50.886;6.468;2023-08-24T08:54:10;18.52;;;4.15;;
27305;SDS011;14792;50.886;6.468;2023-08-24T08:57:12;19.48;;;4.60;;
27305;SDS011;14792;50.886;6.468;2023-08-24T09:00:14;15.93;;;4.00;;
27305;SDS011;14792;50.886;6.468;2023-08-24T09:03:16;11.50;;;3.47;;
27305;SDS011;14792;50.886;6.468;2023-08-24T09:06:17;13.53;;;3.87;;
27305;SDS011;14792;50.886;6.468;2023-08-24T09:09:18;16.90;;;3.77;;
27305;SDS011;14792;50.886;6.468;2023-08-24T09:12:20;17.50;;;3.08;;
27305;SDS011;14792;50.886;6.468;2023-08-24T09:15:24;10.58;;;3.80;;
27305;SDS011;14792;50.886;6.468;2023-08-24T09:18:38;14.47;;;3.12;;
27305;SDS011;14792;50.886;6.468;2023-08-24T09:21:39;13.38;;;3.50;;
27305;SDS011;14792;50.886;6.468;2023-08-24T09:24:40;14.63;;;3.45;;
27305;SDS011;14792;50.886;6.468;2023-08-24T09:27:42;16.00;;;3.25;;
27305;SDS011;14792;50.886;6.468;2023-08-24T09:30:44;16.57;;;3.77;;
27305;SDS011;14792;50.886;6.468;2023-08-24T09:33:47;11.25;;;3.60;;
27305;SDS011;14792;50.886;6.468;2023-08-24T09:36:47;17.02;;;3.90;;
27305;SDS011;14792;50.886;6.468;2023-08-24T09:39:48;19.25;;;4.17;;
27305;SDS011;14792;50.886;6.468;2023-08-24T09:42:50;19.07;;;3.77;;
27305;SDS011;14792;50.886;6.468;2023-08-24T09:45:52;18.52;;;3.77;;
27305;SDS011;14792;50.886;6.468;2023-08-24T09:48:53;16.82;;;3.47;;
27305;SDS011;14792;50.886;6.468;2023-08-24T09:51:55;4.58;;;2.33;;
27305;SDS011;14792;50.886;6.468;2023-08-24T09:54:56;6.00;;;2.55;;
27305;SDS011;14792;50.886;6.468;2023-08-24T09:57:58;17.45;;;3.90;;
27305;SDS011;14792;50.886;6.468;2023-08-24T10:01:00;7.33;;;2.75;;
27305;SDS011;14792;50.886;6.468;2023-08-24T10:04:01;7.90;;;2.70;;
27305;SDS011;14792;50.886;6.468;2023-08-24T10:07:06;16.73;;;3.65;;
27305;SDS011;14792;50.886;6.468;2023-08-24T10:10:07;15.93;;;3.72;;
27305;SDS011;14792;50.886;6.468;2023-08-24T10:13:11;11.50;;;2.65;;
27305;SDS011;14792;50.886;6.468;2023-08-24T10:16:10;14.18;;;2.83;;
27305;SDS011;14792;50.886;6.468;2023-08-24T10:19:12;7.55;;;2.40;;
27305;SDS011;14792;50.886;6.468;2023-08-24T10:22:13;6.78;;;2.85;;
27305;SDS011;14792;50.886;6.468;2023-08-24T10:25:15;9.35;;;2.75;;
27305;SDS011;14792;50.886;6.468;2023-08-24T10:28:17;11.60;;;2.95;;
27305;SDS011;14792;50.886;6.468;2023-08-24T10:31:18;8.63;;;2.83;;
27305;SDS011;14792;50.886;6.468;2023-08-24T10:34:20;10.08;;;2.83;;
27305;SDS011;14792;50.886;6.468;2023-08-24T10:37:24;14.98;;;3.27;;
27305;SDS011;14792;50.886;6.468;2023-08-24T10:40:32;10.78;;;3.52;;
27305;SDS011;14792;50.886;6.468;2023-08-24T10:43:48;12.73;;;3.17;;
27305;SDS011;14792;50.886;6.468;2023-08-24T10:46:43;20.50;;;4.05;;
27305;SDS011;14792;50.886;6.468;2023-08-24T10:50:07;21.95;;;4.40;;
27305;SDS011;14792;50.886;6.468;2023-08-24T10:52:47;28.70;;;3.90;;
27305;SDS011;14792;50.886;6.468;2023-08-24T10:55:48;12.37;;;3.55;;
27305;SDS011;14792;50.886;6.468;2023-08-24T10:59:09;15.70;;;3.45;;
27305;SDS011;14792;50.886;6.468;2023-08-24T11:05:16;16.95;;;3.60;;
27305;SDS011;14792;50.886;6.468;2023-08-24T11:08:06;12.13;;;2.90;;
27305;SDS011;14792;50.886;6.468;2023-08-24T11:11:17;20.92;;;3.35;;
27305;SDS011;14792;50.886;6.468;2023-08-24T11:14:16;16.80;;;4.15;;
27305;SDS011;14792;50.886;6.468;2023-08-24T11:17:17;11.10;;;3.30;;
27305;SDS011;14792;50.886;6.468;2023-08-24T11:20:18;10.60;;;3.02;;
27305;SDS011;14792;50.886;6.468;2023-08-24T11:23:20;10.53;;;2.72;;
27305;SDS011;14792;50.886;6.468;2023-08-24T11:26:21;9.13;;;2.62;;
27305;SDS011;14792;50.886;6.468;2023-08-24T11:29:24;10.75;;;2.83;;
27305;SDS011;14792;50.886;6.468;2023-08-24T11:32:25;12.63;;;2.77;;
27305;SDS011;14792;50.886;6.468;2023-08-24T11:35:26;12.80;;;3.50;;
27305;SDS011;14792;50.886;6.468;2023-08-24T11:38:37;12.40;;;3.15;;
27305;SDS011;14792;50.886;6.468;2023-08-24T11:41:41;13.58;;;3.22;;
27305;SDS011;14792;50.886;6.468;2023-08-24T11:44:46;9.40;;;3.00;;
27305;SDS011;14792;50.886;6.468;2023-08-24T11:47:47;10.25;;;3.22;;
27305;SDS011;14792;50.886;6.468;2023-08-24T11:50:49;14.73;;;3.42;;
27305;SDS011;14792;50.886;6.468;2023-08-24T11:53:50;9.55;;;3.27;;
27305;SDS011;14792;50.886;6.468;2023-08-24T11:56:52;7.95;;;3.75;;
27305;SDS011;14792;50.886;6.468;2023-08-24T11:59:53;12.40;;;4.10;;
27305;SDS011;14792;50.886;6.468;2023-08-24T12:02:55;14.25;;;4.80;;
27305;SDS011;14792;50.886;6.468;2023-08-24T12:06:09;16.95;;;4.70;;
27305;SDS011;14792;50.886;6.468;2023-08-24T12:09:04;12.53;;;5.40;;
27305;SDS011;14792;50.886;6.468;2023-08-24T12:12:02;11.65;;;4.58;;
27305;SDS011;14792;50.886;6.468;2023-08-24T12:15:04;10.28;;;4.45;;
27305;SDS011;14792;50.886;6.468;2023-08-24T12:18:12;8.33;;;4.55;;
27305;SDS011;14792;50.886;6.468;2023-08-24T12:21:13;7.08;;;4.33;;
27305;SDS011;14792;50.886;6.468;2023-08-24T12:24:14;8.33;;;3.85;;
27305;SDS011;14792;50.886;6.468;2023-08-24T12:27:19;8.90;;;3.98;;
27305;SDS011;14792;50.886;6.468;2023-08-24T12:30:20;7.47;;;3.30;;
27305;SDS011;14792;50.886;6.468;2023-08-24T12:36:23;11.35;;;4.22;;
27305;SDS011;14792;50.886;6.468;2023-08-24T12:39:25;8.38;;;3.87;;
27305;SDS011;14792;50.886;6.468;2023-08-24T12:42:27;13.20;;;3.58;;
27305;SDS011;14792;50.886;6.468;2023-08-24T12:45:28;10.05;;;3.95;;
27305;SDS011;14792;50.886;6.468;2023-08-24T12:48:30;6.33;;;3.55;;
27305;SDS011;14792;50.886;6.468;2023-08-24T12:51:31;8.38;;;3.58;;
27305;SDS011;14792;50.886;6.468;2023-08-24T12:54:33;8.85;;;3.45;;
27305;SDS011;14792;50.886;6.468;2023-08-24T12:57:35;5.83;;;3.02;;
27305;SDS011;14792;50.886;6.468;2023-08-24T13:00:36;6.85;;;3.10;;
27305;SDS011;14792;50.886;6.468;2023-08-24T13:03:38;6.15;;;2.72;;
27305;SDS011;14792;50.886;6.468;2023-08-24T13:06:39;7.58;;;2.85;;
27305;SDS011;14792;50.886;6.468;2023-08-24T13:09:41;8.20;;;2.72;;
27305;SDS011;14792;50.886;6.468;2023-08-24T13:12:42;5.00;;;2.90;;
27305;SDS011;14792;50.886;6.468;2023-08-24T13:15:44;8.00;;;2.65;;
27305;SDS011;14792;50.886;6.468;2023-08-24T13:18:46;4.80;;;2.25;;
27305;SDS011;14792;50.886;6.468;2023-08-24T13:21:47;5.22;;;2.62;;
27305;SDS011;14792;50.886;6.468;2023-08-24T13:24:49;10.30;;;3.25;;
27305;SDS011;14792;50.886;6.468;2023-08-24T13:27:50;4.50;;;2.40;;
27305;SDS011;14792;50.886;6.468;2023-08-24T13:30:52;4.95;;;2.62;;
27305;SDS011;14792;50.886;6.468;2023-08-24T13:33:54;5.00;;;2.60;;
27305;SDS011;14792;50.886;6.468;2023-08-24T13:36:55;7.78;;;2.65;;
27305;SDS011;14792;50.886;6.468;2023-08-24T13:39:58;9.58;;;2.95;;
27305;SDS011;14792;50.886;6.468;2023-08-24T13:43:01;5.70;;;2.90;;
27305;SDS011;14792;50.886;6.468;2023-08-24T13:46:02;7.28;;;2.30;;
27305;SDS011;14792;50.886;6.468;2023-08-24T13:49:04;5.33;;;2.77;;
27305;SDS011;14792;50.886;6.468;2023-08-24T13:52:06;5.62;;;2.70;;
27305;SDS011;14792;50.886;6.468;2023-08-24T13:55:07;4.58;;;2.80;;
27305;SDS011;14792;50.886;6.468;2023-08-24T13:58:09;7.42;;;3.00;;
27305;SDS011;14792;50.886;6.468;2023-08-24T14:01:10;7.25;;;2.87;;
27305;SDS011;14792;50.886;6.468;2023-08-24T14:04:12;9.73;;;3.02;;
27305;SDS011;14792;50.886;6.468;2023-08-24T14:07:13;8.53;;;2.72;;
27305;SDS011;14792;50.886;6.468;2023-08-24T14:10:15;8.43;;;3.52;;
27305;SDS011;14792;50.886;6.468;2023-08-24T14:13:17;7.05;;;2.77;;
27305;SDS011;14792;50.886;6.468;2023-08-24T14:16:18;11.45;;;3.35;;
27305;SDS011;14792;50.886;6.468;2023-08-24T14:19:20;8.75;;;3.30;;
27305;SDS011;14792;50.886;6.468;2023-08-24T14:22:21;10.85;;;3.12;;
27305;SDS011;14792;50.886;6.468;2023-08-24T14:25:23;9.73;;;3.02;;
27305;SDS011;14792;50.886;6.468;2023-08-24T14:28:25;9.78;;;3.30;;
27305;SDS011;14792;50.886;6.468;2023-08-24T14:31:27;9.18;;;3.55;;
27305;SDS011;14792;50.886;6.468;2023-08-24T14:34:28;8.25;;;3.40;;
27305;SDS011;14792;50.886;6.468;2023-08-24T14:37:29;9.10;;;2.95;;
27305;SDS011;14792;50.886;6.468;2023-08-24T14:40:31;10.10;;;2.95;;
27305;SDS011;14792;50.886;6.468;2023-08-24T14:43:33;5.60;;;2.52;;
27305;SDS011;14792;50.886;6.468;2023-08-24T14:46:34;8.98;;;2.87;;
27305;SDS011;14792;50.886;6.468;2023-08-24T14:49:36;8.38;;;2.80;;
27305;SDS011;14792;50.886;6.468;2023-08-24T14:52:37;10.58;;;2.70;;
27305;SDS011;14792;50.886;6.468;2023-08-24T14:55:39;9.98;;;2.60;;
27305;SDS011;14792;50.886;6.468;2023-08-24T14:58:40;6.90;;;2.70;;
27305;SDS011;14792;50.886;6.468;2023-08-24T15:01:42;6.47;;;2.37;;
27305;SDS011;14792;50.886;6.468;2023-08-24T15:04:44;8.03;;;2.52;;
27305;SDS011;14792;50.886;6.468;2023-08-24T15:07:45;7.28;;;2.00;;
27305;SDS011;14792;50.886;6.468;2023-08-24T15:10:50;5.30;;;2.20;;
27305;SDS011;14792;50.886;6.468;2023-08-24T15:13:52;6.03;;;1.80;;
27305;SDS011;14792;50.886;6.468;2023-08-24T15:16:53;4.15;;;1.47;;
27305;SDS011;14792;50.886;6.468;2023-08-24T15:19:55;4.53;;;1.50;;
27305;SDS011;14792;50.886;6.468;2023-08-24T15:22:58;5.97;;;1.90;;
27305;SDS011;14792;50.886;6.468;2023-08-24T15:25:59;4.10;;;1.80;;
27305;SDS011;14792;50.886;6.468;2023-08-24T15:29:11;7.45;;;1.98;;
27305;SDS011;14792;50.886;6.468;2023-08-24T15:32:10;8.53;;;1.80;;
27305;SDS011;14792;50.886;6.468;2023-08-24T15:35:12;7.60;;;1.85;;
27305;SDS011;14792;50.886;6.468;2023-08-24T15:38:13;6.03;;;1.60;;
27305;SDS011;14792;50.886;6.468;2023-08-24T15:41:15;4.45;;;1.62;;
27305;SDS011;14792;50.886;6.468;2023-08-24T15:44:17;2.42;;;1.17;;
27305;SDS011;14792;50.886;6.468;2023-08-24T15:47:18;2.52;;;1.32;;
27305;SDS011;14792;50.886;6.468;2023-08-24T15:50:20;4.85;;;1.37;;
27305;SDS011;14792;50.886;6.468;2023-08-24T15:53:21;2.20;;;1.20;;
27305;SDS011;14792;50.886;6.468;2023-08-24T15:56:23;2.52;;;1.45;;
27305;SDS011;14792;50.886;6.468;2023-08-24T15:59:25;4.35;;;1.52;;
27305;SDS011;14792;50.886;6.468;2023-08-24T16:02:26;2.92;;;1.40;;
27305;SDS011;14792;50.886;6.468;2023-08-24T16:05:28;5.37;;;1.60;;
27305;SDS011;14792;50.886;6.468;2023-08-24T16:08:29;5.12;;;1.80;;
27305;SDS011;14792;50.886;6.468;2023-08-24T16:11:31;3.15;;;1.57;;
27305;SDS011;14792;50.886;6.468;2023-08-24T16:14:33;4.35;;;1.67;;
27305;SDS011;14792;50.886;6.468;2023-08-24T16:17:34;4.05;;;1.45;;
27305;SDS011;14792;50.886;6.468;2023-08-24T16:20:36;3.08;;;1.75;;
27305;SDS011;14792;50.886;6.468;2023-08-24T16:23:37;3.10;;;1.70;;
27305;SDS011;14792;50.886;6.468;2023-08-24T16:26:39;4.53;;;1.65;;
27305;SDS011;14792;50.886;6.468;2023-08-24T16:29:40;5.60;;;1.70;;
27305;SDS011;14792;50.886;6.468;2023-08-24T16:32:42;5.47;;;1.80;;
27305;SDS011;14792;50.886;6.468;2023-08-24T16:35:44;4.55;;;1.85;;
27305;SDS011;14792;50.886;6.468;2023-08-24T16:38:45;6.62;;;1.67;;
27305;SDS011;14792;50.886;6.468;2023-08-24T16:41:47;5.60;;;1.90;;
27305;SDS011;14792;50.886;6.468;2023-08-24T16:44:48;4.62;;;1.87;;
27305;SDS011;14792;50.886;6.468;2023-08-24T16:47:50;7.03;;;1.57;;
27305;SDS011;14792;50.886;6.468;2023-08-24T16:50:52;6.55;;;2.30;;
27305;SDS011;14792;50.886;6.468;2023-08-24T16:53:53;8.45;;;3.22;;
27305;SDS011;14792;50.886;6.468;2023-08-24T16:56:55;6.35;;;1.70;;
27305;SDS011;14792;50.886;6.468;2023-08-24T16:59:56;7.35;;;2.30;;
27305;SDS011;14792;50.886;6.468;2023-08-24T17:02:58;6.35;;;2.37;;
27305;SDS011;14792;50.886;6.468;2023-08-24T17:06:00;4.10;;;1.72;;
27305;SDS011;14792;50.886;6.468;2023-08-24T17:09:01;3.77;;;1.82;;
27305;SDS011;14792;50.886;6.468;2023-08-24T17:12:03;4.10;;;1.60;;
27305;SDS011;14792;50.886;6.468;2023-08-24T17:15:04;1.22;;;1.02;;
27305;SDS011;14792;50.886;6.468;2023-08-24T17:18:06;3.85;;;1.40;;
27305;SDS011;14792;50.886;6.468;2023-08-24T17:21:08;10.15;;;1.90;;
27305;SDS011;14792;50.886;6.468;2023-08-24T17:24:09;14.30;;;2.47;;
27305;SDS011;14792;50.886;6.468;2023-08-24T17:27:11;27.05;;;3.50;;
27305;SDS011;14792;50.886;6.468;2023-08-24T17:30:12;37.80;;;4.67;;
27305;SDS011;14792;50.886;6.468;2023-08-24T17:33:14;26.93;;;3.37;;
27305;SDS011;14792;50.886;6.468;2023-08-24T17:36:16;27.77;;;4.12;;
27305;SDS011;14792;50.886;6.468;2023-08-24T17:39:17;29.98;;;4.10;;
27305;SDS011;14792;50.886;6.468;2023-08-24T17:42:19;25.77;;;3.65;;
27305;SDS011;14792;50.886;6.468;2023-08-24T17:45:20;25.82;;;3.60;;
27305;SDS011;14792;50.886;6.468;2023-08-24T17:48:24;14.23;;;2.40;;
27305;SDS011;14792;50.886;6.468;2023-08-24T17:51:26;12.15;;;2.58;;
27305;SDS011;14792;50.886;6.468;2023-08-24T17:54:28;13.00;;;2.20;;
27305;SDS011;14792;50.886;6.468;2023-08-24T17:57:29;8.30;;;2.00;;
27305;SDS011;14792;50.886;6.468;2023-08-24T18:00:31;11.83;;;2.20;;
27305;SDS011;14792;50.886;6.468;2023-08-24T18:03:32;10.50;;;2.95;;
27305;SDS011;14792;50.886;6.468;2023-08-24T18:06:34;10.63;;;2.55;;
27305;SDS011;14792;50.886;6.468;2023-08-24T18:09:36;12.63;;;2.17;;
27305;SDS011;14792;50.886;6.468;2023-08-24T18:12:37;11.20;;;2.20;;
27305;SDS011;14792;50.886;6.468;2023-08-24T18:15:39;10.43;;;1.77;;
27305;SDS011;14792;50.886;6.468;2023-08-24T18:18:40;7.40;;;1.85;;